createdAt,value
2022-12-15T00:00:13.261Z,0.00
2022-12-15T00:01:13.526Z,0.00
2022-12-15T00:02:13.701Z,0.00
2022-12-15T00:03:14.165Z,0.00
2022-12-15T00:04:13.288Z,0.00
2022-12-15T00:05:13.244Z,0.00
2022-12-15T00:06:13.335Z,0.00
2022-12-15T00:07:13.327Z,0.00
2022-12-15T00:08:13.179Z,0.00
2022-12-15T00:09:14.563Z,0.00
2022-12-15T00:10:13.518Z,0.00
2022-12-15T00:11:13.721Z,0.00
2022-12-15T00:12:13.761Z,0.00
2022-12-15T00:13:13.629Z,0.00
2022-12-15T00:14:13.726Z,0.00
2022-12-15T00:15:13.675Z,0.00
2022-12-15T00:16:13.800Z,0.00
2022-12-15T00:17:13.911Z,0.00
2022-12-15T00:18:12.776Z,0.00
2022-12-15T00:19:13.659Z,0.00
2022-12-15T00:20:13.740Z,0.00
2022-12-15T00:21:13.749Z,0.00
2022-12-15T00:22:18.705Z,0.00
2022-12-15T00:23:13.995Z,0.00
2022-12-15T00:24:13.068Z,0.00
2022-12-15T00:25:13.302Z,0.00
2022-12-15T00:26:13.579Z,0.00
2022-12-15T00:27:13.601Z,0.00
2022-12-15T00:28:13.826Z,0.00
2022-12-15T00:29:14.115Z,0.00
2022-12-15T00:30:13.363Z,0.00
2022-12-15T00:31:13.487Z,0.00
2022-12-15T00:32:13.499Z,0.00
2022-12-15T00:33:13.582Z,0.00
2022-12-15T00:34:14.374Z,0.00
2022-12-15T00:35:13.541Z,0.00
2022-12-15T00:36:14.078Z,0.00
2022-12-15T00:37:13.292Z,0.00
2022-12-15T00:38:13.240Z,0.00
2022-12-15T00:39:13.279Z,0.00
2022-12-15T00:40:13.248Z,0.00
2022-12-15T00:41:13.572Z,0.00
2022-12-15T00:42:13.816Z,0.00
2022-12-15T00:43:13.846Z,0.00
2022-12-15T00:44:18.916Z,0.00
2022-12-15T00:45:13.488Z,0.00
2022-12-15T00:46:13.587Z,0.00
2022-12-15T00:47:13.793Z,0.00
2022-12-15T00:48:13.656Z,0.00
2022-12-15T00:49:13.555Z,0.00
2022-12-15T00:50:13.473Z,0.00
2022-12-15T00:51:13.454Z,0.00
2022-12-15T00:52:13.563Z,0.00
2022-12-15T00:53:13.566Z,0.00
2022-12-15T00:54:17.855Z,0.00
2022-12-15T00:55:13.348Z,0.00
2022-12-15T00:56:13.230Z,0.00
2022-12-15T00:57:13.194Z,0.00
2022-12-15T00:58:13.151Z,0.00
2022-12-15T00:59:13.131Z,0.00
2022-12-15T01:00:13.065Z,0.00
2022-12-15T01:01:13.049Z,0.00
2022-12-15T01:02:13.411Z,0.00
2022-12-15T01:03:13.720Z,0.00
2022-12-15T01:04:13.866Z,0.00
2022-12-15T01:05:12.914Z,0.00
2022-12-15T01:06:12.866Z,0.00
2022-12-15T01:07:13.816Z,0.00
2022-12-15T01:08:14.158Z,0.00
2022-12-15T01:09:13.043Z,0.00
2022-12-15T01:10:12.965Z,0.00
2022-12-15T01:11:13.368Z,0.00
2022-12-15T01:12:13.354Z,0.00
2022-12-15T01:13:13.313Z,0.00
2022-12-15T01:14:13.226Z,0.00
2022-12-15T01:15:13.361Z,0.00
2022-12-15T01:16:13.397Z,0.00
2022-12-15T01:17:13.551Z,0.00
2022-12-15T01:18:13.489Z,0.00
2022-12-15T01:19:13.503Z,0.00
2022-12-15T01:20:13.456Z,0.00
2022-12-15T01:21:13.385Z,0.00
2022-12-15T01:22:13.239Z,0.00
2022-12-15T01:23:13.168Z,0.00
2022-12-15T01:24:13.519Z,0.00
2022-12-15T01:25:14.651Z,0.00
2022-12-15T01:26:13.635Z,0.00
2022-12-15T01:27:13.531Z,0.00
2022-12-15T01:28:13.611Z,0.00
2022-12-15T01:29:13.544Z,0.00
2022-12-15T01:30:13.674Z,0.00
2022-12-15T01:31:13.687Z,0.00
2022-12-15T01:32:13.771Z,0.00
2022-12-15T01:33:13.746Z,0.00
2022-12-15T01:34:13.982Z,0.00
2022-12-15T01:35:12.941Z,0.00
2022-12-15T01:36:13.022Z,0.00
2022-12-15T01:37:13.043Z,0.00
2022-12-15T01:38:13.035Z,0.00
2022-12-15T01:39:12.966Z,0.00
2022-12-15T01:40:13.100Z,0.00
2022-12-15T01:41:13.154Z,0.00
2022-12-15T01:42:13.045Z,0.00
2022-12-15T01:43:13.153Z,0.00
2022-12-15T01:44:13.083Z,0.00
2022-12-15T01:45:12.985Z,0.00
2022-12-15T01:46:13.021Z,0.00
2022-12-15T01:47:13.177Z,0.00
2022-12-15T01:48:13.223Z,0.00
2022-12-15T01:49:13.484Z,0.00
2022-12-15T01:50:13.553Z,0.00
2022-12-15T01:51:13.457Z,0.00
2022-12-15T01:52:13.607Z,0.00
2022-12-15T01:53:13.778Z,0.00
2022-12-15T01:54:13.749Z,0.00
2022-12-15T01:55:13.643Z,0.00
2022-12-15T01:56:14.007Z,0.00
2022-12-15T01:57:13.229Z,0.00
2022-12-15T01:58:13.114Z,0.00
2022-12-15T01:59:13.091Z,0.00
2022-12-15T02:00:13.023Z,0.00
2022-12-15T02:01:13.134Z,0.00
2022-12-15T02:02:13.199Z,0.00
2022-12-15T02:03:13.213Z,0.00
2022-12-15T02:04:13.187Z,0.00
2022-12-15T02:05:13.314Z,0.00
2022-12-15T02:06:13.314Z,0.00
2022-12-15T02:07:13.204Z,0.00
2022-12-15T02:08:13.349Z,0.00
2022-12-15T02:09:13.432Z,0.00
2022-12-15T02:10:13.525Z,0.00
2022-12-15T02:11:13.351Z,0.00
2022-12-15T02:12:13.628Z,0.00
2022-12-15T02:13:13.700Z,0.00
2022-12-15T02:14:13.565Z,0.00
2022-12-15T02:15:13.763Z,0.00
2022-12-15T02:16:13.644Z,0.00
2022-12-15T02:17:13.749Z,0.00
2022-12-15T02:18:13.671Z,0.00
2022-12-15T02:19:13.631Z,0.00
2022-12-15T02:20:13.567Z,0.00
2022-12-15T02:21:13.583Z,0.00
2022-12-15T02:22:13.609Z,0.00
2022-12-15T02:23:14.145Z,0.00
2022-12-15T02:24:13.255Z,0.00
2022-12-15T02:25:13.362Z,0.00
2022-12-15T02:26:13.367Z,0.00
2022-12-15T02:27:13.840Z,0.00
2022-12-15T02:28:14.353Z,0.00
2022-12-15T02:29:13.457Z,0.00
2022-12-15T02:30:13.675Z,0.00
2022-12-15T02:31:13.702Z,0.00
2022-12-15T02:32:13.669Z,0.00
2022-12-15T02:33:13.523Z,0.00
2022-12-15T02:34:13.408Z,0.00
2022-12-15T02:35:13.398Z,0.00
2022-12-15T02:36:13.374Z,0.00
2022-12-15T02:37:13.211Z,0.00
2022-12-15T02:38:13.203Z,0.00
2022-12-15T02:39:13.091Z,0.00
2022-12-15T02:40:13.220Z,0.00
2022-12-15T02:41:13.304Z,0.00
2022-12-15T02:42:13.261Z,0.00
2022-12-15T02:43:13.260Z,0.00
2022-12-15T02:44:13.574Z,0.00
2022-12-15T02:45:13.545Z,0.00
2022-12-15T02:46:13.625Z,0.00
2022-12-15T02:47:13.544Z,0.00
2022-12-15T02:48:13.674Z,0.00
2022-12-15T02:49:13.940Z,0.00
2022-12-15T02:50:12.856Z,0.00
2022-12-15T02:51:19.051Z,0.00
2022-12-15T02:52:12.874Z,0.00
2022-12-15T02:53:13.840Z,0.00
2022-12-15T02:54:13.951Z,0.00
2022-12-15T02:55:13.092Z,0.00
2022-12-15T02:56:13.043Z,0.00
2022-12-15T02:57:12.976Z,0.00
2022-12-15T02:58:13.137Z,0.00
2022-12-15T02:59:13.194Z,0.00
2022-12-15T03:00:13.132Z,0.00
2022-12-15T03:01:13.499Z,0.00
2022-12-15T03:02:13.870Z,0.00
2022-12-15T03:03:13.060Z,0.00
2022-12-15T03:04:13.388Z,0.00
2022-12-15T03:05:13.610Z,0.00
2022-12-15T03:06:13.624Z,0.00
2022-12-15T03:07:13.527Z,0.00
2022-12-15T03:08:13.366Z,0.00
2022-12-15T03:09:13.494Z,0.00
2022-12-15T03:10:13.370Z,0.00
2022-12-15T03:11:13.291Z,0.00
2022-12-15T03:12:13.195Z,0.00
2022-12-15T03:13:13.410Z,0.00
2022-12-15T03:14:13.241Z,0.00
2022-12-15T03:15:13.532Z,0.00
2022-12-15T03:16:14.165Z,0.00
2022-12-15T03:17:13.282Z,0.00
2022-12-15T03:18:13.416Z,0.00
2022-12-15T03:19:13.532Z,0.00
2022-12-15T03:20:13.501Z,0.00
2022-12-15T03:21:13.643Z,0.00
2022-12-15T03:22:13.834Z,0.00
2022-12-15T03:23:13.906Z,0.00
2022-12-15T03:24:13.082Z,0.00
2022-12-15T03:25:13.070Z,0.00
2022-12-15T03:26:13.163Z,0.00
2022-12-15T03:27:13.167Z,0.00
2022-12-15T03:28:13.205Z,0.00
2022-12-15T03:29:13.514Z,0.00
2022-12-15T03:30:13.525Z,0.00
2022-12-15T03:31:13.601Z,0.00
2022-12-15T03:32:13.733Z,0.00
2022-12-15T03:33:14.295Z,0.00
2022-12-15T03:34:14.043Z,0.00
2022-12-15T03:35:13.034Z,0.00
2022-12-15T03:36:18.228Z,0.00
2022-12-15T03:37:13.777Z,0.00
2022-12-15T03:38:13.747Z,0.00
2022-12-15T03:39:14.463Z,0.00
2022-12-15T03:40:13.518Z,0.00
2022-12-15T03:41:13.650Z,0.00
2022-12-15T03:42:14.204Z,0.00
2022-12-15T03:43:13.347Z,0.00
2022-12-15T03:44:13.313Z,0.00
2022-12-15T03:45:13.242Z,0.00
2022-12-15T03:46:13.511Z,0.00
2022-12-15T03:47:13.842Z,0.00
2022-12-15T03:48:13.879Z,0.00
2022-12-15T03:49:14.005Z,0.00
2022-12-15T03:50:13.072Z,0.00
2022-12-15T03:51:18.434Z,0.00
2022-12-15T03:52:14.107Z,0.00
2022-12-15T03:53:13.149Z,0.00
2022-12-15T03:54:14.529Z,0.00
2022-12-15T03:55:13.922Z,0.00
2022-12-15T03:56:13.115Z,0.00
2022-12-15T03:57:13.321Z,0.00
2022-12-15T03:58:13.458Z,0.00
2022-12-15T03:59:13.435Z,0.00
2022-12-15T04:00:13.332Z,0.00
2022-12-15T04:01:13.346Z,0.00
2022-12-15T04:02:13.698Z,0.00
2022-12-15T04:03:13.010Z,0.00
2022-12-15T04:04:13.054Z,0.00
2022-12-15T04:05:13.060Z,0.00
2022-12-15T04:06:13.304Z,0.00
2022-12-15T04:07:13.219Z,0.00
2022-12-15T04:08:15.180Z,0.00
2022-12-15T04:09:13.208Z,0.00
2022-12-15T04:10:13.374Z,0.00
2022-12-15T04:11:13.465Z,0.00
2022-12-15T04:12:13.344Z,0.00
2022-12-15T04:13:13.619Z,0.00
2022-12-15T04:14:13.765Z,0.00
2022-12-15T04:15:13.819Z,0.00
2022-12-15T04:16:19.530Z,0.00
2022-12-15T04:17:13.120Z,0.00
2022-12-15T04:18:13.056Z,0.00
2022-12-15T04:19:13.193Z,0.00
2022-12-15T04:20:13.269Z,0.00
2022-12-15T04:21:13.348Z,0.00
2022-12-15T04:22:17.802Z,0.00
2022-12-15T04:23:13.104Z,0.00
2022-12-15T04:24:13.178Z,0.00
2022-12-15T04:25:13.466Z,0.00
2022-12-15T04:26:13.332Z,0.00
2022-12-15T04:27:13.264Z,0.00
2022-12-15T04:28:13.579Z,0.00
2022-12-15T04:29:13.650Z,0.00
2022-12-15T04:30:31.983Z,0.00
2022-12-15T04:31:13.026Z,0.00
2022-12-15T04:32:13.134Z,0.00
2022-12-15T04:33:13.058Z,0.00
2022-12-15T04:34:13.242Z,0.00
2022-12-15T04:35:13.152Z,0.00
2022-12-15T04:36:12.972Z,0.00
2022-12-15T04:37:28.886Z,0.00
2022-12-15T04:38:12.812Z,0.00
2022-12-15T04:39:13.948Z,0.00
2022-12-15T04:40:12.932Z,0.00
2022-12-15T04:41:12.920Z,0.00
2022-12-15T04:42:13.542Z,0.00
2022-12-15T04:43:13.438Z,0.00
2022-12-15T04:44:13.358Z,0.00
2022-12-15T04:45:18.609Z,0.00
2022-12-15T04:46:13.482Z,0.00
2022-12-15T04:47:26.305Z,0.00
2022-12-15T04:48:13.167Z,0.00
2022-12-15T04:49:13.220Z,0.00
2022-12-15T04:50:13.202Z,0.00
2022-12-15T04:51:35.449Z,0.00
2022-12-15T04:52:13.789Z,0.00
2022-12-15T04:53:13.852Z,0.00
2022-12-15T04:54:41.072Z,0.00
2022-12-15T04:55:13.312Z,0.00
2022-12-15T04:56:18.219Z,0.00
2022-12-15T04:57:14.460Z,0.00
2022-12-15T04:58:13.623Z,0.00
2022-12-15T04:59:14.389Z,0.00
2022-12-15T05:00:13.539Z,0.00
2022-12-15T05:01:13.523Z,0.00
2022-12-15T05:02:13.698Z,0.00
2022-12-15T05:03:18.109Z,0.00
2022-12-15T05:04:14.725Z,0.00
2022-12-15T05:05:13.755Z,0.00
2022-12-15T05:06:13.879Z,0.00
2022-12-15T05:07:13.538Z,0.00
2022-12-15T05:08:13.907Z,0.00
2022-12-15T05:09:13.178Z,0.00
2022-12-15T05:10:15.263Z,0.00
2022-12-15T05:11:13.408Z,0.00
2022-12-15T05:12:13.927Z,0.00
2022-12-15T05:13:13.162Z,0.00
2022-12-15T05:14:13.160Z,0.00
2022-12-15T05:15:13.387Z,0.00
2022-12-15T05:16:15.069Z,0.00
2022-12-15T05:17:13.706Z,0.00
2022-12-15T05:18:15.496Z,0.00
2022-12-15T05:19:13.910Z,0.00
2022-12-15T05:20:36.942Z,0.00
2022-12-15T05:21:13.023Z,0.00
2022-12-15T05:22:12.962Z,0.00
2022-12-15T05:23:12.984Z,0.00
2022-12-15T05:24:13.326Z,0.00
2022-12-15T05:26:19.139Z,0.00
2022-12-15T05:27:13.497Z,0.00
2022-12-15T05:28:13.587Z,0.00
2022-12-15T05:29:13.496Z,0.00
2022-12-15T05:30:13.798Z,0.00
2022-12-15T05:31:20.035Z,0.00
2022-12-15T05:33:12.900Z,0.00
2022-12-15T05:34:12.848Z,0.00
2022-12-15T05:35:13.978Z,0.00
2022-12-15T05:36:13.146Z,0.00
2022-12-15T05:37:13.509Z,0.00
2022-12-15T05:38:36.110Z,0.00
2022-12-15T05:39:13.349Z,0.00
2022-12-15T05:40:13.418Z,0.00
2022-12-15T05:41:18.648Z,0.00
2022-12-15T05:42:14.248Z,0.00
2022-12-15T05:43:13.502Z,0.00
2022-12-15T05:44:13.753Z,0.00
2022-12-15T05:45:18.973Z,0.00
2022-12-15T05:46:13.125Z,0.00
2022-12-15T05:47:13.464Z,0.00
2022-12-15T05:48:13.419Z,0.00
2022-12-15T05:49:13.340Z,0.00
2022-12-15T05:50:13.327Z,0.00
2022-12-15T05:51:13.336Z,0.00
2022-12-15T05:52:13.739Z,0.00
2022-12-15T05:53:13.955Z,0.00
2022-12-15T05:54:13.207Z,0.00
2022-12-15T05:55:13.510Z,0.00
2022-12-15T05:56:13.494Z,0.00
2022-12-15T05:57:13.471Z,0.00
2022-12-15T05:58:13.421Z,0.00
2022-12-15T05:59:13.345Z,0.00
2022-12-15T06:00:13.539Z,0.00
2022-12-15T06:01:13.553Z,0.00
2022-12-15T06:02:13.846Z,0.00
2022-12-15T06:03:13.048Z,0.00
2022-12-15T06:04:13.369Z,0.00
2022-12-15T06:05:13.580Z,0.00
2022-12-15T06:06:14.856Z,0.00
2022-12-15T06:07:13.841Z,0.00
2022-12-15T06:08:19.062Z,0.00
2022-12-15T06:09:13.104Z,0.00
2022-12-15T06:10:13.098Z,0.00
2022-12-15T06:11:12.986Z,0.00
2022-12-15T06:12:12.864Z,0.00
2022-12-15T06:13:14.188Z,0.00
2022-12-15T06:14:13.321Z,0.00
2022-12-15T06:15:13.282Z,0.00
2022-12-15T06:16:13.261Z,0.00
2022-12-15T06:17:13.457Z,0.00
2022-12-15T06:18:13.439Z,0.00
2022-12-15T06:19:20.681Z,0.00
2022-12-15T06:20:13.674Z,0.00
2022-12-15T06:21:13.621Z,0.00
2022-12-15T06:22:18.615Z,0.00
2022-12-15T06:23:13.777Z,0.00
2022-12-15T06:24:13.965Z,0.00
2022-12-15T06:25:12.940Z,0.00
2022-12-15T06:26:13.187Z,0.00
2022-12-15T06:27:13.279Z,0.00
2022-12-15T06:28:13.376Z,0.00
2022-12-15T06:29:13.439Z,0.00
2022-12-15T06:30:13.557Z,0.00
2022-12-15T06:31:13.557Z,0.00
2022-12-15T06:32:57.875Z,0.00
2022-12-15T06:33:13.756Z,0.00
2022-12-15T06:34:13.700Z,0.00
2022-12-15T06:35:13.700Z,0.00
2022-12-15T06:36:13.600Z,0.00
2022-12-15T06:37:13.713Z,0.00
2022-12-15T06:38:13.739Z,0.00
2022-12-15T06:39:14.298Z,0.00
2022-12-15T06:40:13.361Z,0.00
2022-12-15T06:41:13.444Z,0.00
2022-12-15T06:42:13.459Z,0.00
2022-12-15T06:43:13.392Z,0.00
2022-12-15T06:44:13.495Z,0.00
2022-12-15T06:45:13.558Z,0.00
2022-12-15T06:46:13.632Z,0.00
2022-12-15T06:47:14.144Z,0.77
2022-12-15T06:48:13.129Z,0.77
2022-12-15T06:49:13.028Z,0.77
2022-12-15T06:50:12.975Z,0.77
2022-12-15T06:51:16.747Z,0.77
2022-12-15T06:52:13.530Z,1.53
2022-12-15T06:53:13.409Z,1.53
2022-12-15T06:54:13.379Z,2.29
2022-12-15T06:55:13.448Z,2.29
2022-12-15T06:56:13.473Z,3.06
2022-12-15T06:57:13.700Z,3.82
2022-12-15T06:58:13.687Z,4.59
2022-12-15T06:59:13.695Z,5.35
2022-12-15T07:00:13.990Z,6.88
2022-12-15T07:01:12.991Z,7.65
2022-12-15T07:02:13.177Z,9.18
2022-12-15T07:03:13.485Z,10.71
2022-12-15T07:04:13.739Z,12.24
2022-12-15T07:05:13.980Z,15.30
2022-12-15T07:06:13.032Z,16.83
2022-12-15T07:07:13.151Z,19.89
2022-12-15T07:08:13.106Z,22.95
2022-12-15T07:09:13.202Z,24.48
2022-12-15T07:10:23.510Z,30.60
2022-12-15T07:11:13.437Z,33.66
2022-12-15T07:12:23.380Z,39.78
2022-12-15T07:13:13.222Z,45.90
2022-12-15T07:14:13.183Z,48.96
2022-12-15T07:15:18.081Z,55.08
2022-12-15T07:16:13.432Z,61.20
2022-12-15T07:17:13.631Z,73.44
2022-12-15T07:18:13.705Z,79.56
2022-12-15T07:19:13.849Z,85.68
2022-12-15T07:20:13.936Z,97.92
2022-12-15T07:21:13.125Z,110.16
2022-12-15T07:22:13.077Z,110.16
2022-12-15T07:23:13.184Z,134.64
2022-12-15T07:24:13.211Z,146.88
2022-12-15T07:25:13.171Z,146.88
2022-12-15T07:26:13.176Z,171.36
2022-12-15T07:27:13.384Z,183.60
2022-12-15T07:28:13.680Z,195.84
2022-12-15T07:29:18.140Z,195.84
2022-12-15T07:30:35.279Z,220.32
2022-12-15T07:31:13.881Z,244.80
2022-12-15T07:32:13.366Z,244.80
2022-12-15T07:33:13.362Z,269.28
2022-12-15T07:34:13.208Z,293.76
2022-12-15T07:35:13.139Z,318.24
2022-12-15T07:36:13.080Z,342.72
2022-12-15T07:37:12.921Z,342.72
2022-12-15T07:38:13.335Z,367.20
2022-12-15T07:39:13.534Z,391.68
2022-12-15T07:40:13.891Z,391.68
2022-12-15T07:41:12.987Z,440.64
2022-12-15T07:42:13.056Z,440.64
2022-12-15T07:43:13.067Z,440.64
2022-12-15T07:44:13.331Z,489.60
2022-12-15T07:46:13.650Z,538.56
2022-12-15T07:47:14.421Z,538.56
2022-12-15T07:48:38.517Z,587.52
2022-12-15T07:49:20.545Z,587.52
2022-12-15T07:50:13.868Z,636.48
2022-12-15T07:51:19.356Z,636.48
2022-12-15T07:52:45.336Z,685.44
2022-12-15T07:53:13.239Z,685.44
2022-12-15T07:54:24.545Z,734.40
2022-12-15T07:55:13.576Z,734.40
2022-12-15T07:56:17.761Z,783.36
2022-12-15T07:57:13.741Z,783.36
2022-12-15T07:58:36.166Z,783.36
2022-12-15T07:59:13.289Z,783.36
2022-12-15T08:00:13.589Z,881.28
2022-12-15T08:01:13.554Z,881.28
2022-12-15T08:02:43.859Z,881.28
2022-12-15T08:03:13.803Z,881.28
2022-12-15T08:04:14.137Z,881.28
2022-12-15T08:05:13.233Z,979.20
2022-12-15T08:06:13.544Z,979.20
2022-12-15T08:07:13.646Z,979.20
2022-12-15T08:08:15.406Z,979.20
2022-12-15T08:09:13.862Z,979.20
2022-12-15T08:10:13.859Z,1077.12
2022-12-15T08:11:13.781Z,1077.12
2022-12-15T08:12:13.684Z,1175.04
2022-12-15T08:13:31.424Z,1175.04
2022-12-15T08:14:17.630Z,1175.04
2022-12-15T08:15:13.267Z,1175.04
2022-12-15T08:16:13.200Z,1175.04
2022-12-15T08:17:23.152Z,1175.04
2022-12-15T08:18:13.287Z,1272.96
2022-12-15T08:19:31.206Z,1272.96
2022-12-15T08:20:13.168Z,1272.96
2022-12-15T08:21:13.132Z,1272.96
2022-12-15T08:22:13.374Z,1370.88
2022-12-15T08:23:13.562Z,1370.88
2022-12-15T08:24:13.949Z,1370.88
2022-12-15T08:25:37.857Z,1370.88
2022-12-15T08:26:13.779Z,1370.88
2022-12-15T08:27:32.669Z,1370.88
2022-12-15T08:28:13.793Z,1370.88
2022-12-15T08:29:50.153Z,1468.80
2022-12-15T08:30:13.933Z,1468.80
2022-12-15T08:31:18.039Z,1468.80
2022-12-15T08:32:13.169Z,1468.80
2022-12-15T08:33:13.160Z,1566.72
2022-12-15T08:34:49.211Z,1566.72
2022-12-15T08:35:39.036Z,1566.72
2022-12-15T08:36:45.875Z,1566.72
2022-12-15T08:37:14.213Z,1468.80
2022-12-15T08:38:13.228Z,1566.72
2022-12-15T08:39:13.375Z,1566.72
2022-12-15T08:40:13.584Z,1566.72
2022-12-15T08:41:20.265Z,1566.72
2022-12-15T08:42:13.804Z,1566.72
2022-12-15T08:43:13.957Z,1566.72
2022-12-15T08:44:13.814Z,1566.72
2022-12-15T08:45:13.892Z,1566.72
2022-12-15T08:46:13.209Z,1566.72
2022-12-15T08:47:13.522Z,1566.72
2022-12-15T08:48:13.430Z,1762.56
2022-12-15T08:49:23.587Z,1762.56
2022-12-15T08:50:43.239Z,1762.56
2022-12-15T08:51:13.835Z,1762.56
2022-12-15T08:52:14.144Z,1762.56
2022-12-15T08:53:39.144Z,1762.56
2022-12-15T08:54:13.479Z,1762.56
2022-12-15T08:55:16.781Z,1762.56
2022-12-15T08:56:14.042Z,1762.56
2022-12-15T08:57:13.257Z,1762.56
2022-12-15T08:58:13.319Z,1762.56
2022-12-15T08:59:13.270Z,1762.56
2022-12-15T09:00:13.281Z,1762.56
2022-12-15T09:01:17.478Z,1762.56
2022-12-15T09:02:13.490Z,1762.56
2022-12-15T09:03:14.462Z,1762.56
2022-12-15T09:04:13.681Z,1762.56
2022-12-15T09:05:13.800Z,1762.56
2022-12-15T09:06:14.175Z,1762.56
2022-12-15T09:07:14.012Z,1958.40
2022-12-15T09:08:13.130Z,1762.56
2022-12-15T09:09:13.173Z,1762.56
2022-12-15T09:10:13.079Z,1958.40
2022-12-15T09:11:13.095Z,1762.56
2022-12-15T09:12:13.736Z,1958.40
2022-12-15T09:13:14.054Z,1958.40
2022-12-15T09:14:13.141Z,1958.40
2022-12-15T09:15:13.315Z,1958.40
2022-12-15T09:16:13.849Z,1958.40
2022-12-15T09:17:14.252Z,1958.40
2022-12-15T09:18:13.204Z,1958.40
2022-12-15T09:19:13.171Z,1958.40
2022-12-15T09:20:17.492Z,1958.40
2022-12-15T09:21:12.832Z,1958.40
2022-12-15T09:22:14.215Z,1958.40
2022-12-15T09:23:13.100Z,2154.24
2022-12-15T09:24:17.699Z,2154.24
2022-12-15T09:25:13.329Z,1958.40
2022-12-15T09:26:13.559Z,2154.24
2022-12-15T09:27:13.794Z,2154.24
2022-12-15T09:28:13.783Z,2154.24
2022-12-15T09:29:14.155Z,2154.24
2022-12-15T09:30:13.496Z,3525.12
2022-12-15T09:31:13.459Z,5483.52
2022-12-15T09:32:14.395Z,5875.20
2022-12-15T09:33:13.601Z,6266.88
2022-12-15T09:34:13.575Z,6266.88
2022-12-15T09:35:13.723Z,6266.88
2022-12-15T09:36:14.264Z,6266.88
2022-12-15T09:37:13.562Z,6266.88
2022-12-15T09:38:13.530Z,6266.88
2022-12-15T09:39:13.552Z,6266.88
2022-12-15T09:40:13.756Z,7050.24
2022-12-15T09:41:13.751Z,7050.24
2022-12-15T09:42:13.638Z,7050.24
2022-12-15T09:43:33.916Z,7050.24
2022-12-15T09:44:12.993Z,7050.24
2022-12-15T09:45:12.979Z,7050.24
2022-12-15T09:46:12.985Z,7050.24
2022-12-15T09:47:13.019Z,7050.24
2022-12-15T09:48:13.215Z,7050.24
2022-12-15T09:49:13.343Z,7050.24
2022-12-15T09:50:13.746Z,7050.24
2022-12-15T09:51:13.688Z,7050.24
2022-12-15T09:52:14.660Z,7050.24
2022-12-15T09:53:45.688Z,7050.24
2022-12-15T09:54:13.542Z,7050.24
2022-12-15T09:55:13.786Z,7050.24
2022-12-15T09:56:12.850Z,7833.60
2022-12-15T09:57:14.012Z,7833.60
2022-12-15T09:58:12.938Z,7833.60
2022-12-15T09:59:12.967Z,7833.60
2022-12-15T10:00:12.909Z,7833.60
2022-12-15T10:01:13.160Z,7833.60
2022-12-15T10:02:13.375Z,7833.60
2022-12-15T10:03:13.920Z,7833.60
2022-12-15T10:04:13.010Z,7833.60
2022-12-15T10:05:13.347Z,7833.60
2022-12-15T10:06:18.970Z,8616.96
2022-12-15T10:07:13.031Z,8616.96
2022-12-15T10:08:13.363Z,8616.96
2022-12-15T10:09:13.307Z,8616.96
2022-12-15T10:10:13.381Z,8616.96
2022-12-15T10:11:14.557Z,8616.96
2022-12-15T10:12:13.671Z,8616.96
2022-12-15T10:13:14.233Z,7050.24
2022-12-15T10:14:13.476Z,8616.96
2022-12-15T10:15:13.561Z,8616.96
2022-12-15T10:16:13.467Z,8616.96
2022-12-15T10:17:13.520Z,9400.32
2022-12-15T10:18:13.784Z,9400.32
2022-12-15T10:19:13.857Z,9400.32
2022-12-15T10:20:13.804Z,9400.32
2022-12-15T10:21:13.769Z,9400.32
2022-12-15T10:22:13.769Z,9400.32
2022-12-15T10:23:13.747Z,9400.32
2022-12-15T10:24:13.719Z,8616.96
2022-12-15T10:25:13.641Z,9400.32
2022-12-15T10:26:13.695Z,8616.96
2022-12-15T10:27:13.666Z,8616.96
2022-12-15T10:28:13.743Z,9400.32
2022-12-15T10:29:13.707Z,9400.32
2022-12-15T10:30:14.235Z,9400.32
2022-12-15T10:31:13.356Z,9400.32
2022-12-15T10:32:13.420Z,9400.32
2022-12-15T10:33:13.665Z,9400.32
2022-12-15T10:34:13.853Z,9400.32
2022-12-15T10:35:14.188Z,10183.68
2022-12-15T10:36:13.321Z,10183.68
2022-12-15T10:37:13.596Z,10183.68
2022-12-15T10:38:13.537Z,10183.68
2022-12-15T10:39:16.219Z,10183.68
2022-12-15T10:40:13.637Z,10183.68
2022-12-15T10:41:13.800Z,10183.68
2022-12-15T10:42:13.933Z,10183.68
2022-12-15T10:43:13.031Z,10183.68
2022-12-15T10:44:13.010Z,10183.68
2022-12-15T10:45:13.032Z,10183.68
2022-12-15T10:46:13.251Z,10183.68
2022-12-15T10:47:13.515Z,10183.68
2022-12-15T10:48:13.397Z,10183.68
2022-12-15T10:49:13.388Z,10183.68
2022-12-15T10:50:25.019Z,10183.68
2022-12-15T10:51:13.357Z,10967.04
2022-12-15T10:52:13.276Z,10183.68
2022-12-15T10:53:13.270Z,10183.68
2022-12-15T10:54:13.298Z,10183.68
2022-12-15T10:55:13.364Z,10183.68
2022-12-15T10:56:13.393Z,10967.04
2022-12-15T10:57:13.297Z,10967.04
2022-12-15T10:58:13.378Z,10967.04
2022-12-15T10:59:13.355Z,10967.04
2022-12-15T11:00:13.339Z,10967.04
2022-12-15T11:01:13.343Z,10967.04
2022-12-15T11:02:18.011Z,10967.04
2022-12-15T11:03:13.979Z,11750.40
2022-12-15T11:04:33.358Z,12533.76
2022-12-15T11:05:13.376Z,12533.76
2022-12-15T11:06:13.402Z,12533.76
2022-12-15T11:07:13.318Z,12533.76
2022-12-15T11:08:13.227Z,12533.76
2022-12-15T11:09:13.166Z,12533.76
2022-12-15T11:10:13.152Z,12533.76
2022-12-15T11:11:13.135Z,12533.76
2022-12-15T11:12:13.187Z,12533.76
2022-12-15T11:13:13.182Z,12533.76
2022-12-15T11:14:13.033Z,12533.76
2022-12-15T11:15:12.970Z,12533.76
2022-12-15T11:16:13.113Z,12533.76
2022-12-15T11:17:13.425Z,12533.76
2022-12-15T11:18:13.577Z,11750.40
2022-12-15T11:19:13.473Z,10967.04
2022-12-15T11:20:13.382Z,10183.68
2022-12-15T11:21:13.389Z,10183.68
2022-12-15T11:22:13.530Z,10183.68
2022-12-15T11:23:13.532Z,10183.68
2022-12-15T11:24:13.473Z,9400.32
2022-12-15T11:25:13.414Z,9400.32
2022-12-15T11:26:13.566Z,9400.32
2022-12-15T11:27:13.593Z,9400.32
2022-12-15T11:28:13.575Z,9400.32
2022-12-15T11:29:13.638Z,9400.32
2022-12-15T11:30:13.608Z,9400.32
2022-12-15T11:31:13.571Z,9400.32
2022-12-15T11:32:13.698Z,9400.32
2022-12-15T11:33:13.607Z,9400.32
2022-12-15T11:34:14.056Z,9400.32
2022-12-15T11:35:13.115Z,9400.32
2022-12-15T11:36:13.150Z,9400.32
2022-12-15T11:37:13.331Z,8616.96
2022-12-15T11:38:13.237Z,8616.96
2022-12-15T11:39:13.383Z,9400.32
2022-12-15T11:40:13.390Z,9400.32
2022-12-15T11:41:13.283Z,8616.96
2022-12-15T11:42:13.313Z,9400.32
2022-12-15T11:43:13.446Z,8616.96
2022-12-15T11:44:13.444Z,8616.96
2022-12-15T11:45:13.368Z,8616.96
2022-12-15T11:46:13.379Z,9400.32
2022-12-15T11:47:13.314Z,9400.32
2022-12-15T11:48:13.349Z,8616.96
2022-12-15T11:49:13.579Z,8616.96
2022-12-15T11:50:13.571Z,8616.96
2022-12-15T11:51:13.923Z,8616.96
2022-12-15T11:52:12.885Z,8616.96
2022-12-15T11:53:15.384Z,8616.96
2022-12-15T11:54:13.239Z,8616.96
2022-12-15T11:55:13.173Z,8616.96
2022-12-15T11:56:13.267Z,8616.96
2022-12-15T11:57:13.268Z,9400.32
2022-12-15T11:58:13.143Z,9400.32
2022-12-15T11:59:13.038Z,9400.32
2022-12-15T12:00:13.146Z,9400.32
2022-12-15T12:01:13.259Z,9400.32
2022-12-15T12:02:13.243Z,8616.96
2022-12-15T12:03:13.288Z,8616.96
2022-12-15T12:04:13.223Z,8616.96
2022-12-15T12:05:13.191Z,8616.96
2022-12-15T12:06:13.518Z,8616.96
2022-12-15T12:07:13.993Z,9400.32
2022-12-15T12:08:13.192Z,8616.96
2022-12-15T12:09:13.050Z,7833.60
2022-12-15T12:10:13.019Z,7050.24
2022-12-15T12:11:14.030Z,7833.60
2022-12-15T12:12:13.319Z,8616.96
2022-12-15T12:13:13.307Z,8616.96
2022-12-15T12:14:13.245Z,7833.60
2022-12-15T12:15:13.345Z,7833.60
2022-12-15T12:16:13.381Z,7833.60
2022-12-15T12:17:13.283Z,7050.24
2022-12-15T12:18:13.220Z,7050.24
2022-12-15T12:19:13.141Z,7833.60
2022-12-15T12:20:13.287Z,9400.32
2022-12-15T12:21:13.618Z,7833.60
2022-12-15T12:22:15.155Z,5483.52
2022-12-15T12:23:13.355Z,5483.52
2022-12-15T12:24:13.511Z,6266.88
2022-12-15T12:25:13.568Z,6266.88
2022-12-15T12:26:13.707Z,7050.24
2022-12-15T12:27:13.668Z,7833.60
2022-12-15T12:28:13.966Z,7833.60
2022-12-15T12:29:13.065Z,7833.60
2022-12-15T12:30:13.027Z,6266.88
2022-12-15T12:31:13.215Z,7050.24
2022-12-15T12:32:13.125Z,8616.96
2022-12-15T12:33:13.085Z,7050.24
2022-12-15T12:34:13.003Z,7050.24
2022-12-15T12:35:30.626Z,7050.24
2022-12-15T12:36:13.562Z,6266.88
2022-12-15T12:37:13.606Z,5875.20
2022-12-15T12:38:13.808Z,5091.84
2022-12-15T12:39:13.785Z,5091.84
2022-12-15T12:40:13.733Z,5483.52
2022-12-15T12:41:14.147Z,5483.52
2022-12-15T12:42:13.390Z,6266.88
2022-12-15T12:43:14.165Z,7050.24
2022-12-15T12:44:13.551Z,7050.24
2022-12-15T12:45:13.655Z,7833.60
2022-12-15T12:46:13.759Z,7050.24
2022-12-15T12:47:13.874Z,6266.88
2022-12-15T12:48:14.048Z,6266.88